• Join FlightAware (Why Join?)
  • Login
  • US Flag 
05:22PM EST


 

Airport Tracker/Info


-or-


 

Live Flight TrackerFlight Track Log ✈ DAL3698 ✈ 24-Apr-2013 ✈ KLAN - KMSP

Flight Track Log - Related Links

Times and Time Zones

All times are in EDT time to prevent confusion due to time zone crossing. See the DAL3698 flight status page for this flight to view local times or setup timezone preferences in your user account.

Time Position Orientation Groundspeed Altitude Reporting Facility
EDT Latitude Longitude Course Direction KTS MPH feet Rate Location/Type
09:19AM 42.7769 -84.6286 276° West 169 194 2,700  Level Cleveland Center
09:20AM 42.7703 -84.6933 262° West 191 220 4,700 2,100 Climbing Cleveland Center
09:21AM 42.7264 -84.9378 279° West  Level FlightAware Approximate
09:21AM 42.7669 -84.7864 267° West 223 257 6,900  Level Cleveland Center
09:22AM 42.7436 -85.0615 283° West  Level FlightAware Approximate
09:22AM 42.7697 -84.8856 272° West 253 291 9,500  Level Cleveland Center
09:22AM 42.7708 -84.9061 274° West 263 303 10,100 1,800 Climbing Chicago Center
09:23AM 42.7567 -85.1860 276° West  Level FlightAware Approximate
09:23AM 42.7831 -85.0358 277° West 302 348 11,900  Level Chicago Center
09:24AM 42.7663 -85.3114 276° West  Level FlightAware Approximate
09:24AM 42.8147 -85.1481 291° West 323 372 13,400  Level Chicago Center
09:25AM 42.8486 -85.2647 292° West 332 382 14,900 1,500 Climbing Chicago Center
09:26AM 42.8831 -85.3828 292° West 335 386 16,500 1,560 Climbing Chicago Center
09:27AM 42.9172 -85.5014 292° West 338 389 18,200 1,620 Climbing Chicago Center
09:28AM 42.9339 -85.6225 281° West 326 375 19,900 1,740 Climbing Chicago Center
09:29AM 42.9511 -85.7683 279° West 322 371 21,800 1,380 Climbing Chicago Center
09:30AM 42.9617 -85.8919 277° West 323 372 22,800 840 Climbing Chicago Center
09:31AM 42.9717 -86.0214 276° West 332 382 23,600 780 Climbing Chicago Center
09:32AM 42.9828 -86.1514 277° West 337 388 24,500 780 Climbing Chicago Center
09:33AM 42.9914 -86.2842 275° West 347 399 25,300 720 Climbing Chicago Center
09:34AM 43.0014 -86.4150 276° West 347 399 26,100 720 Climbing Chicago Center
09:35AM 43.0108 -86.5444 276° West 344 396 26,900 720 Climbing Chicago Center
09:37AM 43.0197 -86.6739 275° West 342 394 27,700 480 Climbing Chicago Center
09:38AM 43.0300 -86.8289 275° West 343 395 28,000 120 Climbing Chicago Center
09:39AM 43.0386 -86.9631 275° West 353 406 28,000  Level Chicago Center
09:40AM 43.0472 -87.0983 275° West 358 412 28,100 240 Climbing Chicago Center
09:41AM 43.0561 -87.2342 275° West 359 413 28,600 480 Climbing Chicago Center
09:42AM 43.0653 -87.3736 275° West 356 410 29,100 480 Climbing Chicago Center
09:43AM 43.0719 -87.5078 274° West 355 409 29,600 420 Climbing Chicago Center
09:44AM 43.1272 -87.6633 296° West 404 465 30,000 180 Climbing Chicago Center
09:45AM 43.1858 -87.7994 301° West 412 474 30,000  Level Chicago Center
09:46AM 43.2439 -87.9378 300° West 418 481 30,000  Level Chicago Center
09:47AM 43.3031 -88.0761 300° West 421 484 30,000  Level Chicago Center
09:48AM 43.3617 -88.2150 300° West 420 483 30,000  Level Chicago Center
09:49AM 43.4311 -88.3800 300° West 426 490 30,000  Level Chicago Center
09:50AM 43.4936 -88.5264 301° West 434 499 30,000  Level Chicago Center
09:51AM 43.5458 -88.6567 299° West 427 491 30,000  Level Chicago Center
09:52AM 43.6153 -88.8233 300° West 429 494 30,000  Level Chicago Center
09:53AM 43.6644 -88.9411 300° West 430 495 30,000  Level Minneapolis Center
09:54AM 43.7328 -89.1072 300° West 427 491 30,000  Level Minneapolis Center
09:55AM 43.7897 -89.2503 299° West 425 489 30,000  Level Minneapolis Center
09:56AM 43.8478 -89.3919 300° West 425 489 30,000  Level Minneapolis Center
09:57AM 43.9056 -89.5344 299° West 424 488 30,000  Level Minneapolis Center
09:58AM 43.9622 -89.6769 299° West 423 487 30,000  Level Minneapolis Center
09:59AM 44.0200 -89.8200 299° West 423 487 30,000  Level Minneapolis Center
10:00AM 44.0894 -89.9861 300° West 426 490 30,000  Level Minneapolis Center
10:01AM 44.1633 -90.1208 307° West 430 495 30,000  Level Minneapolis Center
10:02AM 44.2367 -90.2522 308° West 429 494 30,000  Level Minneapolis Center
10:03AM 44.3089 -90.3850 307° West 429 494 30,000  Level Minneapolis Center
10:04AM 44.3819 -90.5167 308° West 428 493 30,000  Level Minneapolis Center
10:05AM 44.4536 -90.6450 308° West 420 483 30,000 -840 Level Minneapolis Center
10:06AM 44.5375 -90.8025 307° West 431 496 28,300 -1,500 Descending Minneapolis Center
10:07AM 44.6075 -90.9306 308° West 432 497 27,000 -1,320 Descending Minneapolis Center
10:08AM 44.6775 -91.0606 307° West 424 488 25,600 -1,380 Descending Minneapolis Center
10:09AM 44.7467 -91.1911 307° West 420 483 24,200 -1,500 Descending Minneapolis Center
10:11AM 44.8161 -91.3186 308° West 416 479 22,500 -1,860 Descending Minneapolis Center
10:12AM 44.8853 -91.4542 306° West 367 422 20,400 -1,980 Descending Minneapolis Center
10:13AM 44.9175 -91.5861 289° West 344 396 18,500 -1,680 Descending Minneapolis Center
10:14AM 44.9425 -91.7075 286° West 337 388 17,000 -1,440 Descending Minneapolis Center
10:15AM 44.9653 -91.8375 284° West 340 391 15,600 -1,560 Descending Minneapolis Center
10:15AM 44.9861 -91.9022 294° West 334 384 14,800 -1,680 Descending FAA TRACON SMA TRACON (SMA)
10:16AM 45.0044 -91.9886 287° West 328 377 13,800 -1,440 Descending FAA TRACON SMA TRACON (SMA)
10:16AM 45.0092 -92.0258 280° West 321 369 13,400 -1,200 Descending FAA TRACON SMA TRACON (SMA)
10:16AM 45.0158 -92.0631 284° West 321 369 13,000 -1,380 Descending FAA TRACON SMA TRACON (SMA)
10:17AM 45.0233 -92.1089 283° West 315 362 12,500 -1,500 Descending FAA TRACON SMA TRACON (SMA)
10:17AM 45.0289 -92.1453 282° West 312 359 12,000 -1,380 Descending FAA TRACON SMA TRACON (SMA)
10:17AM 45.0361 -92.1814 286° West 311 358 11,600 -1,380 Descending FAA TRACON SMA TRACON (SMA)
10:18AM 45.0436 -92.2261 283° West 305 351 11,100 -900 Descending FAA TRACON SMA TRACON (SMA)
10:18AM 45.0492 -92.2611 283° West 303 349 11,000 -300 Descending FAA TRACON SMA TRACON (SMA)
10:18AM 45.0508 -92.2981 274° West 304 350 10,900 -180 Descending FAA TRACON SMA TRACON (SMA)
10:19AM 45.0439 -92.3444 258° West 313 360 10,900  Level FAA TRACON SMA TRACON (SMA)
10:19AM 45.0392 -92.3819 260° West 315 362 10,900  Level FAA TRACON SMA TRACON (SMA)
10:19AM 45.0328 -92.4194 256° West 318 366 10,900  Level FAA TRACON SMA TRACON (SMA)
10:20AM 45.0253 -92.4664 257° West 319 367 10,900  Level FAA TRACON SMA TRACON (SMA)
10:20AM 45.0194 -92.5042 258° West 320 368 10,900 -240 Level FAA TRACON SMA TRACON (SMA)
10:21AM 45.0028 -92.5856 254° West 311 358 10,700 -540 Descending FAA TRACON SMA TRACON (SMA)
10:21AM 44.9878 -92.6147 234° Southwest 303 349 10,400 -780 Descending FAA TRACON SMA TRACON (SMA)
10:21AM 44.9708 -92.6411 228° Southwest 297 342 10,200 -780 Descending FAA TRACON SMA TRACON (SMA)
10:22AM 44.9511 -92.6725 228° Southwest 283 326 9,900 -900 Descending FAA TRACON SMA TRACON (SMA)
10:22AM 44.9347 -92.6964 226° Southwest 274 315 9,600 -780 Descending FAA TRACON SMA TRACON (SMA)
10:22AM 44.9200 -92.7192 228° Southwest 262 302 9,400 -840 Descending FAA TRACON SMA TRACON (SMA)
10:23AM 44.9025 -92.7456 227° Southwest 245 282 9,000 -1,260 Descending FAA TRACON SMA TRACON (SMA)
10:23AM 44.8867 -92.7714 229° Southwest 232 267 8,500 -1,320 Descending FAA TRACON SMA TRACON (SMA)
10:23AM 44.8764 -92.7861 225° Southwest 228 262 8,200 -1,320 Descending FAA TRACON SMA TRACON (SMA)
10:24AM 44.8481 -92.8300 228° Southwest 219 252 7,300 -1,320 Descending FAA TRACON SMA TRACON (SMA)
10:24AM 44.8367 -92.8483 229° Southwest 209 241 6,900 -1,500 Descending FAA TRACON SMA TRACON (SMA)
10:25AM 44.8222 -92.8700 227° Southwest 198 228 6,300 -1,500 Descending FAA TRACON SMA TRACON (SMA)
10:25AM 44.8117 -92.8869 229° Southwest 190 219 5,900 -1,380 Descending FAA TRACON SMA TRACON (SMA)
10:25AM 44.8064 -92.9064 249° West 181 208 5,400 -1,440 Descending FAA TRACON SMA TRACON (SMA)
10:26AM 44.8033 -92.9258 258° West 168 193 5,000 -1,380 Descending FAA TRACON SMA TRACON (SMA)
10:26AM 44.7992 -92.9494 256° West 162 186 4,500 -1,200 Descending FAA TRACON SMA TRACON (SMA)
10:26AM 44.7956 -92.9678 254° West 157 181 4,200 -900 Descending FAA TRACON SMA TRACON (SMA)
10:27AM 44.7933 -92.9858 260° West 155 178 3,900 -480 Descending FAA TRACON SMA TRACON (SMA)
10:27AM 44.8000 -93.0067 294° West 153 176 3,900  Level FAA TRACON SMA TRACON (SMA)